Pagina principale
METAR-TAF:

METAR-TAF

Aeroporti :

Gioia del Colle, Italia

Aeroporto di Gioia del Colle

latitudine: 40-46N, longitudine: 016-56E, altezza: 345 m

Osservazione

Il bollettino è stato emesso 1 ora e 14 minuti fa, alle 23:55 UTC
Vento 10 kt da sud/sud-est
Temperature 6°C
Umidità 93%
Pressione 1009 hPa
Visibilità 10 km o più
nessuna nube inferiore a 1500 m e nessun cumulonembo

METAR: LIBV 162355Z 16010KT CAVOK 06/05 Q1009 RMK FEW FEW070 VIS MIN 9999 WIND THR32 16008KT WIND THR14 17007KT BLU

Ora: 02:09 (01:09 UTC)

Previsione

Il bollettino è stato emesso 2 ore e 9 minuti fa, alle 23:00 UTC
Previsione valida dal 17 alle 00 UTC al 17 alle 09 UTC
Vento 15 kt da sud
Visibilità 10 km o più
Nubi sparse ad un'altezza di 2500 ft
Temporaneamente
dal 17 alle 00 UTC al 17 alle 07 UTC
Visibilità: 5000 m
Nubi sparse ad un'altezza di 1000 ft
foschia

TAF: LIBV 162300Z 1700/1709 18015KT 9999 SCT025 TEMPO 1700/1707 5000 BR SCT010

Osservazioni e previsioni meteorologiche di più di 4000 aeroporti (messaggi METAR e TAF).

Le stazioni disponibili sono rappresentate dai dischi gialli e rossi sulla carta.

Puntare il mouse per vedere il nome della stazione.

Clicca sopra per visualizzare le osservazioni e previsioni meteorologiche.

Per cambiare la mappa : fare clic sui pulsanti verdi con una croce nera per ingrandire, il pulsante verde con un trattino per diminuire, o sulla freccia verde per le mappe adiacenti.


METAR-TAF: